BIENTÔT MET'MAP
version 2.0 !

Prévue avant fin octobre,
la nouvelle version sera
plus belle, plus complète
et hébergée sur un serveur
3 fois plus puissant...
et toujours gratuite !


Pas compatible ?
Essayez la version Mobile !

SE CONNECTER : | S'inscrire | Disclaimer | Découvrir Orbifly |
Code OACI :
Lgende : VFR VFR Marginal IFR IFR Intensif IFR Trs Intensif
Visi :
Plafond :
>= 8 km
>= 3000ft
5 8 km
1000 3000 ft
1500m 5 km
500 1000 ft
800 1500m
200 500 ft
< 800m
< 200 ft

METAR - LIBC Santa Anna - Crotone Airport - 27 Jan 2020 22:11 UTC - Data Source NOAA   


- Altitude de l'aérodrome : 522 ft
- Code IATA : CRV
- Pas de NOTAMs connus.


LIBC - Santa Anna - Crotone Airport

Dernier METAR connu : 2015/08/11 07:50 LIBC 110750Z VRB03KT 9999 FEW010 29/22 Q1011
TAF TAF LIBC
Valide du 27 à 18h jusqu'au 28 à 18h UTC


271700Z 2718/2818 34008KT 9999 SCT030
BECMG 2808/2810 24013KT

Source NOAA


MET'MAP, la Météo Aéronautique d'un coup d'oeil ! - Copyright ORBIFLY Décembre 2007

Développement & Programmation : Alexandra Zaïnal
Co-Développement : Marc-Olivier Méhu
Soutien technique & logistique : Manuel Goepfert
Conception & Financement : Baudouin d'Aumeries